createdAt,value
2018-06-16T00:00:59.252Z,91.50
2018-06-16T00:03:27.692Z,91.40
2018-06-16T00:05:56.343Z,91.30
2018-06-16T00:08:24.755Z,91.60
2018-06-16T00:10:53.155Z,91.80
2018-06-16T00:13:21.610Z,91.80
2018-06-16T00:15:50.084Z,91.70
2018-06-16T00:18:19.191Z,91.80
2018-06-16T00:20:47.834Z,92.00
2018-06-16T00:23:16.407Z,91.90
2018-06-16T00:28:13.016Z,91.70
2018-06-16T00:30:41.538Z,91.70
2018-06-16T00:33:09.930Z,91.70
2018-06-16T00:35:38.564Z,92.10
2018-06-16T00:38:07.120Z,92.20
2018-06-16T00:40:35.549Z,92.10
2018-06-16T00:43:03.993Z,92.30
2018-06-16T00:45:32.548Z,92.30
2018-06-16T00:48:01.032Z,92.40
2018-06-16T00:50:29.462Z,92.50
2018-06-16T00:52:57.951Z,92.40
2018-06-16T00:55:26.522Z,92.50
2018-06-16T00:57:55.285Z,92.30
2018-06-16T01:00:23.857Z,92.20
2018-06-16T01:02:52.291Z,92.00
2018-06-16T01:05:20.793Z,92.20
2018-06-16T01:07:49.347Z,92.30
2018-06-16T01:10:17.799Z,92.50
2018-06-16T01:12:46.343Z,92.50
2018-06-16T01:15:14.933Z,92.70
2018-06-16T01:17:43.404Z,92.60
2018-06-16T01:20:11.872Z,92.60
2018-06-16T01:22:40.347Z,92.80
2018-06-16T01:25:08.766Z,92.60
2018-06-16T01:27:37.176Z,92.70
2018-06-16T01:30:05.854Z,92.90
2018-06-16T01:32:34.350Z,92.60
2018-06-16T01:35:02.759Z,92.70
2018-06-16T01:37:31.203Z,92.70
2018-06-16T01:39:59.704Z,92.80
2018-06-16T01:42:28.130Z,92.90
2018-06-16T01:44:56.527Z,92.90
2018-06-16T01:49:53.167Z,93.10
2018-06-16T01:52:21.584Z,92.90
2018-06-16T01:54:50.011Z,92.80
2018-06-16T01:57:18.449Z,92.80
2018-06-16T01:59:46.847Z,92.90
2018-06-16T02:02:16.157Z,92.90
2018-06-16T02:04:44.726Z,93.00
2018-06-16T02:07:13.273Z,92.80
2018-06-16T02:09:41.688Z,93.10
2018-06-16T02:12:10.211Z,93.30
2018-06-16T02:14:38.646Z,93.60
2018-06-16T02:17:07.083Z,93.80
2018-06-16T02:19:35.592Z,93.40
2018-06-16T02:22:04.205Z,93.60
2018-06-16T02:24:32.608Z,92.80
2018-06-16T02:27:01.054Z,92.60
2018-06-16T02:29:29.546Z,92.70
2018-06-16T02:31:58.086Z,92.90
2018-06-16T02:34:26.566Z,93.10
2018-06-16T02:36:55.271Z,93.20
2018-06-16T02:39:23.695Z,93.00
2018-06-16T02:44:20.248Z,93.10
2018-06-16T02:46:48.659Z,93.00
2018-06-16T02:49:17.129Z,92.90
2018-06-16T02:51:45.559Z,93.00
2018-06-16T02:54:14.041Z,92.90
2018-06-16T02:56:42.542Z,92.90
2018-06-16T02:59:10.964Z,93.30
2018-06-16T03:01:39.463Z,92.80
2018-06-16T03:04:08.141Z,92.90
2018-06-16T03:06:36.600Z,92.80
2018-06-16T03:09:07.019Z,92.90
2018-06-16T03:11:35.580Z,93.00
2018-06-16T03:14:03.996Z,93.40
2018-06-16T03:16:32.450Z,93.50
2018-06-16T03:19:01.185Z,93.60
2018-06-16T03:21:29.598Z,93.60
2018-06-16T03:23:58.004Z,93.20
2018-06-16T03:26:26.499Z,93.30
2018-06-16T03:28:54.942Z,93.20
2018-06-16T03:31:23.452Z,93.00
2018-06-16T03:33:51.885Z,93.10
2018-06-16T03:36:20.455Z,93.10
2018-06-16T03:38:48.869Z,93.20
2018-06-16T03:41:17.291Z,93.20
2018-06-16T03:43:45.715Z,93.30
2018-06-16T03:46:14.197Z,93.20
2018-06-16T03:48:43.487Z,93.10
2018-06-16T03:51:11.913Z,93.10
2018-06-16T03:53:40.413Z,93.00
2018-06-16T03:56:08.841Z,93.00
2018-06-16T03:58:37.336Z,93.30
2018-06-16T04:01:05.732Z,93.20
2018-06-16T04:03:34.172Z,93.20
2018-06-16T04:06:02.564Z,93.40
2018-06-16T04:08:31.087Z,93.40
2018-06-16T04:10:59.720Z,93.50
2018-06-16T04:13:28.134Z,93.50
2018-06-16T04:15:56.632Z,93.40
2018-06-16T04:18:25.167Z,93.30
2018-06-16T04:20:53.999Z,93.40
2018-06-16T04:23:23.519Z,93.60
2018-06-16T04:25:51.947Z,93.80
2018-06-16T04:28:20.424Z,93.70
2018-06-16T04:30:48.958Z,93.80
2018-06-16T04:33:17.494Z,93.80
2018-06-16T04:35:45.909Z,93.70
2018-06-16T04:40:42.625Z,93.80
2018-06-16T04:43:11.269Z,93.70
2018-06-16T04:45:39.795Z,93.80
2018-06-16T04:48:08.211Z,93.70
2018-06-16T04:50:36.728Z,93.50
2018-06-16T04:53:05.560Z,93.70
2018-06-16T04:55:34.086Z,93.90
2018-06-16T04:58:02.587Z,94.00
2018-06-16T05:00:31.224Z,94.20
2018-06-16T05:02:59.795Z,93.90
2018-06-16T05:05:28.282Z,93.80
2018-06-16T05:07:56.672Z,93.50
2018-06-16T05:10:25.126Z,92.80
2018-06-16T05:12:53.668Z,92.70
2018-06-16T05:15:22.084Z,92.30
2018-06-16T05:17:50.930Z,92.40
2018-06-16T05:20:19.455Z,92.30
2018-06-16T05:22:47.995Z,92.00
2018-06-16T05:25:16.642Z,91.80
2018-06-16T05:27:45.258Z,91.50
2018-06-16T05:30:13.747Z,91.30
2018-06-16T05:32:42.939Z,91.20
2018-06-16T05:35:11.556Z,91.00
2018-06-16T05:37:40.334Z,90.60
2018-06-16T05:40:09.179Z,90.60
2018-06-16T05:42:37.885Z,89.90
2018-06-16T05:45:06.417Z,89.80
2018-06-16T05:50:03.160Z,89.90
2018-06-16T05:52:31.664Z,89.20
2018-06-16T05:55:00.155Z,88.30
2018-06-16T05:57:28.609Z,88.40
2018-06-16T05:59:57.221Z,88.30
2018-06-16T06:02:25.639Z,89.20
2018-06-16T06:04:54.125Z,88.20
2018-06-16T06:07:22.571Z,87.30
2018-06-16T06:09:51.259Z,85.60
2018-06-16T06:12:19.846Z,84.80
2018-06-16T06:14:48.378Z,85.40
2018-06-16T06:17:16.863Z,84.20
2018-06-16T06:22:13.512Z,84.40
2018-06-16T06:24:42.015Z,84.10
2018-06-16T06:27:10.538Z,84.60
2018-06-16T06:29:38.967Z,83.80
2018-06-16T06:32:07.493Z,83.40
2018-06-16T06:34:36.042Z,83.50
2018-06-16T06:37:04.579Z,83.30
2018-06-16T06:39:33.177Z,83.30
2018-06-16T06:42:01.615Z,84.00
2018-06-16T06:44:30.303Z,82.90
2018-06-16T06:46:58.879Z,82.20
2018-06-16T06:49:27.568Z,82.30
2018-06-16T06:51:55.981Z,82.10
2018-06-16T06:54:24.428Z,81.90
2018-06-16T06:56:53.095Z,81.50
2018-06-16T06:59:21.714Z,80.50
2018-06-16T07:01:50.367Z,80.10
2018-06-16T07:04:18.824Z,80.30
2018-06-16T07:06:47.259Z,79.20
2018-06-16T07:09:15.779Z,78.20
2018-06-16T07:11:44.240Z,77.60
2018-06-16T07:14:12.769Z,76.20
2018-06-16T07:16:41.246Z,75.90
2018-06-16T07:19:09.819Z,74.10
2018-06-16T07:21:38.490Z,74.00
2018-06-16T07:24:07.108Z,73.30
2018-06-16T07:26:35.675Z,72.30
2018-06-16T07:29:04.432Z,72.20
2018-06-16T07:31:32.864Z,70.60
2018-06-16T07:34:01.482Z,70.10
2018-06-16T07:36:30.040Z,69.10
2018-06-16T07:38:58.675Z,65.60
2018-06-16T07:41:27.385Z,65.80
2018-06-16T07:43:55.858Z,64.80
2018-06-16T07:46:24.305Z,63.20
2018-06-16T07:48:52.835Z,62.20
2018-06-16T07:51:21.293Z,61.10
2018-06-16T07:53:49.745Z,61.50
2018-06-16T07:56:18.495Z,60.60
2018-06-16T07:58:47.069Z,58.70
2018-06-16T08:01:15.669Z,58.20
2018-06-16T08:03:44.300Z,57.20
2018-06-16T08:06:13.011Z,58.20
2018-06-16T08:08:41.550Z,55.90
2018-06-16T08:11:10.247Z,55.20
2018-06-16T08:13:38.681Z,55.70
2018-06-16T08:16:07.225Z,55.20
2018-06-16T08:18:35.990Z,54.30
2018-06-16T08:21:04.596Z,54.00
2018-06-16T08:23:33.021Z,53.70
2018-06-16T08:26:01.681Z,53.40
2018-06-16T08:28:30.284Z,50.90
2018-06-16T08:30:58.729Z,50.60
2018-06-16T08:33:27.286Z,51.40
2018-06-16T08:35:55.835Z,49.70
2018-06-16T08:38:24.356Z,50.30
2018-06-16T08:40:52.819Z,51.10
2018-06-16T08:43:21.309Z,50.30
2018-06-16T08:45:49.907Z,50.20
2018-06-16T08:48:18.487Z,48.60
2018-06-16T08:50:47.032Z,47.30
2018-06-16T08:53:15.842Z,48.40
2018-06-16T08:55:44.472Z,46.80
2018-06-16T08:58:12.918Z,49.20
2018-06-16T09:00:41.351Z,47.00
2018-06-16T09:03:10.135Z,47.40
2018-06-16T09:05:38.631Z,47.30
2018-06-16T09:08:07.163Z,46.60
2018-06-16T09:10:35.704Z,47.20
2018-06-16T09:13:04.519Z,47.30
2018-06-16T09:15:33.078Z,47.40
2018-06-16T09:18:02.272Z,47.00
2018-06-16T09:20:31.338Z,46.50
2018-06-16T09:22:59.772Z,46.50
2018-06-16T09:25:28.377Z,45.70
2018-06-16T09:27:56.929Z,44.50
2018-06-16T09:30:25.465Z,45.00
2018-06-16T09:32:54.596Z,43.90
2018-06-16T09:35:23.183Z,43.20
2018-06-16T09:37:52.079Z,41.60
2018-06-16T09:42:49.720Z,46.10
2018-06-16T09:45:18.419Z,44.40
2018-06-16T09:47:47.006Z,43.80
2018-06-16T09:50:15.555Z,45.00
2018-06-16T09:52:44.392Z,44.20
2018-06-16T09:55:13.044Z,44.50
2018-06-16T09:57:41.476Z,44.00
2018-06-16T10:02:45.692Z,42.10
2018-06-16T10:05:14.184Z,43.20
2018-06-16T10:07:42.944Z,40.60
2018-06-16T10:10:11.837Z,41.10
2018-06-16T10:12:40.403Z,42.10
2018-06-16T10:15:09.316Z,43.10
2018-06-16T10:17:38.187Z,43.70
2018-06-16T10:20:06.886Z,42.80
2018-06-16T10:22:35.488Z,43.20
2018-06-16T10:25:04.156Z,40.90
2018-06-16T10:27:32.640Z,41.00
2018-06-16T10:30:01.785Z,40.30
2018-06-16T10:32:30.364Z,40.50
2018-06-16T10:34:58.847Z,43.40
2018-06-16T10:37:27.495Z,42.80
2018-06-16T10:39:56.466Z,42.80
2018-06-16T10:42:25.000Z,42.70
2018-06-16T10:44:54.178Z,41.50
2018-06-16T10:47:22.940Z,39.30
2018-06-16T10:49:51.842Z,40.40
2018-06-16T10:52:20.386Z,39.90
2018-06-16T10:54:49.023Z,41.90
2018-06-16T10:57:17.871Z,39.60
2018-06-16T10:59:46.479Z,41.00
2018-06-16T11:02:15.101Z,41.40
2018-06-16T11:04:43.756Z,40.20
2018-06-16T11:07:12.505Z,40.30
2018-06-16T11:09:41.640Z,37.20
2018-06-16T11:12:10.279Z,38.60
2018-06-16T11:14:39.485Z,38.70
2018-06-16T11:17:08.014Z,35.40
2018-06-16T11:19:36.537Z,35.40
2018-06-16T11:22:05.186Z,39.80
2018-06-16T11:24:33.719Z,39.60
2018-06-16T11:27:02.278Z,37.50
2018-06-16T11:29:31.032Z,37.00
2018-06-16T11:31:59.937Z,39.50
2018-06-16T11:34:28.924Z,39.40
2018-06-16T11:36:57.576Z,38.40
2018-06-16T11:39:26.263Z,38.70
2018-06-16T11:41:54.807Z,38.00
2018-06-16T11:44:23.388Z,38.40
2018-06-16T11:46:51.980Z,37.00
2018-06-16T11:49:20.788Z,36.30
2018-06-16T11:51:49.530Z,35.40
2018-06-16T11:54:18.215Z,34.80
2018-06-16T11:56:47.536Z,36.10
2018-06-16T11:59:16.144Z,35.00
2018-06-16T12:01:44.605Z,33.50
2018-06-16T12:04:13.095Z,34.00
2018-06-16T12:06:41.908Z,35.10
2018-06-16T12:09:12.376Z,34.50
2018-06-16T12:11:41.015Z,33.20
2018-06-16T12:14:10.472Z,32.90
2018-06-16T12:16:39.768Z,32.50
2018-06-16T12:19:08.879Z,32.00
2018-06-16T12:21:37.742Z,34.90
2018-06-16T12:24:07.361Z,33.30
2018-06-16T12:26:36.192Z,33.60
2018-06-16T12:29:05.852Z,33.20
2018-06-16T12:31:34.298Z,35.20
2018-06-16T12:34:03.280Z,32.00
2018-06-16T12:36:31.860Z,33.30
2018-06-16T12:39:00.439Z,32.00
2018-06-16T12:41:29.148Z,32.90
2018-06-16T12:43:57.816Z,34.50
2018-06-16T12:46:26.372Z,30.90
2018-06-16T12:48:54.996Z,30.30
2018-06-16T12:51:23.534Z,31.10
2018-06-16T12:53:52.082Z,31.90
2018-06-16T12:56:20.673Z,31.60
2018-06-16T12:58:49.223Z,32.00
2018-06-16T13:01:17.901Z,30.10
2018-06-16T13:03:46.457Z,31.40
2018-06-16T13:06:15.112Z,30.90
2018-06-16T13:08:43.708Z,31.60
2018-06-16T13:11:12.773Z,30.70
2018-06-16T13:13:41.377Z,30.50
2018-06-16T13:16:09.920Z,31.80
2018-06-16T13:18:38.523Z,31.60
2018-06-16T13:23:36.066Z,30.20
2018-06-16T13:28:32.922Z,32.00
2018-06-16T13:31:01.669Z,33.20
2018-06-16T13:33:30.137Z,30.00
2018-06-16T13:35:58.760Z,31.50
2018-06-16T13:38:27.381Z,32.40
2018-06-16T13:40:55.927Z,31.90
2018-06-16T13:43:24.436Z,33.00
2018-06-16T13:45:53.213Z,31.00
2018-06-16T13:48:21.907Z,32.60
2018-06-16T13:50:50.492Z,31.00
2018-06-16T13:53:19.063Z,31.40
2018-06-16T13:55:48.367Z,31.00
2018-06-16T13:58:17.059Z,30.80
2018-06-16T14:00:45.869Z,31.20
2018-06-16T14:03:14.403Z,29.20
2018-06-16T14:05:43.603Z,29.90
2018-06-16T14:08:12.375Z,30.90
2018-06-16T14:10:40.958Z,31.60
2018-06-16T14:13:09.405Z,32.90
2018-06-16T14:15:38.203Z,31.20
2018-06-16T14:18:06.805Z,31.30
2018-06-16T14:20:35.266Z,32.00
2018-06-16T14:23:03.848Z,33.10
2018-06-16T14:25:32.342Z,32.20
2018-06-16T14:28:00.897Z,29.50
2018-06-16T14:30:29.417Z,26.40
2018-06-16T14:32:57.979Z,27.60
2018-06-16T14:35:26.416Z,27.20
2018-06-16T14:37:55.649Z,27.40
2018-06-16T14:40:24.359Z,27.50
2018-06-16T14:42:53.006Z,28.80
2018-06-16T14:45:21.531Z,28.60
2018-06-16T14:47:50.004Z,29.30
2018-06-16T14:50:18.433Z,31.30
2018-06-16T14:52:47.787Z,28.40
2018-06-16T14:55:17.556Z,27.50
2018-06-16T14:57:46.044Z,23.90
2018-06-16T15:00:14.812Z,23.40
2018-06-16T15:02:43.342Z,21.70
2018-06-16T15:05:12.452Z,22.50
2018-06-16T15:07:41.066Z,22.40
2018-06-16T15:10:09.667Z,23.40
2018-06-16T15:12:38.512Z,23.40
2018-06-16T15:15:07.648Z,22.90
2018-06-16T15:17:36.143Z,22.50
2018-06-16T15:20:04.800Z,23.10
2018-06-16T15:22:33.584Z,23.00
2018-06-16T15:25:02.441Z,22.60
2018-06-16T15:27:30.903Z,21.60
2018-06-16T15:29:59.861Z,22.00
2018-06-16T15:32:28.815Z,22.40
2018-06-16T15:37:25.487Z,25.50
2018-06-16T15:39:54.114Z,27.00
2018-06-16T15:42:22.681Z,27.80
2018-06-16T15:44:51.287Z,29.30
2018-06-16T15:47:19.988Z,30.80
2018-06-16T15:49:48.903Z,32.80
2018-06-16T15:52:17.610Z,34.30
2018-06-16T15:54:46.342Z,33.70
2018-06-16T15:57:14.948Z,30.30
2018-06-16T15:59:43.716Z,28.70
2018-06-16T16:02:12.247Z,26.70
2018-06-16T16:04:40.796Z,26.00
2018-06-16T16:07:09.253Z,24.70
2018-06-16T16:09:37.820Z,25.40
2018-06-16T16:12:06.365Z,25.50
2018-06-16T16:14:34.780Z,24.30
2018-06-16T16:17:03.350Z,22.80
2018-06-16T16:19:31.833Z,24.10
2018-06-16T16:22:00.359Z,25.30
2018-06-16T16:24:28.818Z,25.80
2018-06-16T16:26:57.314Z,28.70
2018-06-16T16:29:25.844Z,30.40
2018-06-16T16:31:54.489Z,33.00
2018-06-16T16:34:23.231Z,36.30
2018-06-16T16:36:51.654Z,37.40
2018-06-16T16:39:20.154Z,39.20
2018-06-16T16:41:48.678Z,39.10
2018-06-16T16:44:17.101Z,39.50
2018-06-16T16:46:45.672Z,41.20
2018-06-16T16:49:14.211Z,40.20
2018-06-16T16:51:42.747Z,39.70
2018-06-16T16:54:11.324Z,38.50
2018-06-16T16:56:40.580Z,36.70
2018-06-16T16:59:09.267Z,35.40
2018-06-16T17:01:38.151Z,32.80
2018-06-16T17:04:07.007Z,32.00
2018-06-16T17:06:35.592Z,32.20
2018-06-16T17:09:05.768Z,32.20
2018-06-16T17:11:34.407Z,31.90
2018-06-16T17:14:03.030Z,32.40
2018-06-16T17:16:31.641Z,34.60
2018-06-16T17:19:00.339Z,36.30
2018-06-16T17:21:28.951Z,35.90
2018-06-16T17:23:57.451Z,35.70
2018-06-16T17:26:26.032Z,38.50
2018-06-16T17:28:54.917Z,40.00
2018-06-16T17:31:23.583Z,40.50
2018-06-16T17:33:52.056Z,42.40
2018-06-16T17:36:20.484Z,43.70
2018-06-16T17:38:49.049Z,45.10
2018-06-16T17:41:17.530Z,47.00
2018-06-16T17:43:46.199Z,49.10
2018-06-16T17:46:14.678Z,52.40
2018-06-16T17:48:43.459Z,55.80
2018-06-16T17:51:13.713Z,56.10
2018-06-16T17:53:42.369Z,57.60
2018-06-16T17:56:10.933Z,59.20
2018-06-16T17:58:39.435Z,61.10
2018-06-16T18:01:08.096Z,62.30
2018-06-16T18:03:36.694Z,64.30
2018-06-16T18:06:05.236Z,65.80
2018-06-16T18:08:33.741Z,66.50
2018-06-16T18:11:02.336Z,67.80
2018-06-16T18:13:31.178Z,68.50
2018-06-16T18:15:59.657Z,69.20
2018-06-16T18:18:28.148Z,70.00
2018-06-16T18:20:56.973Z,69.30
2018-06-16T18:23:25.509Z,70.00
2018-06-16T18:25:54.128Z,69.40
2018-06-16T18:28:22.646Z,69.70
2018-06-16T18:30:51.155Z,71.20
2018-06-16T18:33:19.801Z,71.90
2018-06-16T18:35:48.722Z,73.80
2018-06-16T18:38:17.237Z,74.80
2018-06-16T18:40:45.757Z,74.60
2018-06-16T18:43:14.576Z,75.00
2018-06-16T18:45:43.046Z,75.50
2018-06-16T18:48:11.686Z,75.90
2018-06-16T18:50:40.324Z,76.10
2018-06-16T18:53:08.825Z,76.40
2018-06-16T18:55:37.380Z,76.90
2018-06-16T18:58:05.918Z,77.70
2018-06-16T19:00:34.475Z,78.60
2018-06-16T19:03:03.028Z,79.00
2018-06-16T19:05:31.687Z,79.20
2018-06-16T19:08:00.302Z,78.90
2018-06-16T19:10:28.900Z,79.30
2018-06-16T19:12:57.322Z,79.90
2018-06-16T19:15:25.857Z,80.50
2018-06-16T19:17:54.445Z,80.30
2018-06-16T19:20:22.929Z,79.70
2018-06-16T19:22:51.486Z,79.80
2018-06-16T19:25:19.999Z,80.10
2018-06-16T19:27:48.588Z,81.40
2018-06-16T19:30:17.231Z,81.80
2018-06-16T19:32:45.812Z,81.40
2018-06-16T19:35:14.304Z,81.60
2018-06-16T19:37:42.939Z,82.40
2018-06-16T19:40:11.538Z,83.60
2018-06-16T19:42:40.201Z,83.90
2018-06-16T19:45:08.886Z,84.60
2018-06-16T19:47:37.551Z,85.30
2018-06-16T19:50:06.520Z,85.40
2018-06-16T19:52:35.122Z,85.60
2018-06-16T19:55:03.777Z,86.20
2018-06-16T19:57:32.273Z,86.30
2018-06-16T20:00:00.882Z,86.80
2018-06-16T20:02:29.632Z,86.80
2018-06-16T20:04:59.046Z,88.30
2018-06-16T20:07:27.630Z,87.50
2018-06-16T20:09:56.389Z,87.50
2018-06-16T20:12:24.998Z,87.10
2018-06-16T20:14:53.550Z,87.50
2018-06-16T20:17:22.129Z,87.60
2018-06-16T20:19:50.710Z,87.80
2018-06-16T20:22:19.315Z,88.10
2018-06-16T20:24:47.757Z,88.50
2018-06-16T20:27:16.276Z,88.30
2018-06-16T20:29:44.903Z,88.90
2018-06-16T20:32:13.437Z,88.90
2018-06-16T20:34:41.876Z,88.80
2018-06-16T20:37:10.467Z,89.30
2018-06-16T20:39:38.972Z,89.00
2018-06-16T20:42:07.644Z,89.30
2018-06-16T20:44:36.934Z,89.70
2018-06-16T20:47:05.881Z,90.00
2018-06-16T20:49:34.484Z,90.20
2018-06-16T20:52:03.186Z,90.10
2018-06-16T20:54:31.710Z,90.20
2018-06-16T20:57:00.228Z,90.20
2018-06-16T20:59:28.960Z,90.10
2018-06-16T21:01:57.490Z,90.20
2018-06-16T21:04:25.921Z,90.20
2018-06-16T21:06:54.483Z,90.10
2018-06-16T21:09:23.169Z,90.10
2018-06-16T21:11:51.619Z,90.20
2018-06-16T21:14:20.055Z,90.30
2018-06-16T21:16:49.218Z,90.30
2018-06-16T21:19:17.732Z,90.10
2018-06-16T21:21:46.177Z,90.20
2018-06-16T21:24:14.892Z,90.30
2018-06-16T21:26:43.428Z,90.60
2018-06-16T21:29:11.976Z,90.90
2018-06-16T21:31:40.446Z,91.10
2018-06-16T21:34:08.930Z,91.30
2018-06-16T21:36:37.548Z,91.30
2018-06-16T21:39:07.631Z,91.30
2018-06-16T21:41:36.076Z,91.20
2018-06-16T21:44:04.567Z,91.40
2018-06-16T21:46:33.123Z,91.50
2018-06-16T21:49:01.852Z,91.70
2018-06-16T21:51:30.323Z,91.90
2018-06-16T21:53:58.896Z,91.90
2018-06-16T21:56:27.769Z,91.90
2018-06-16T21:58:56.388Z,91.70
2018-06-16T22:01:31.032Z,91.60
2018-06-16T22:03:59.685Z,91.50
2018-06-16T22:06:28.314Z,91.70
2018-06-16T22:08:56.750Z,91.80
2018-06-16T22:11:25.595Z,91.70
2018-06-16T22:13:54.156Z,91.80
2018-06-16T22:16:22.627Z,91.60
2018-06-16T22:18:51.334Z,91.70
2018-06-16T22:21:19.931Z,91.90
2018-06-16T22:23:48.640Z,91.90
2018-06-16T22:26:17.448Z,92.10
2018-06-16T22:28:45.874Z,92.20
2018-06-16T22:31:14.827Z,92.30
2018-06-16T22:33:43.424Z,92.00
2018-06-16T22:36:11.957Z,92.00
2018-06-16T22:38:41.006Z,91.90
2018-06-16T22:41:09.565Z,92.00
2018-06-16T22:43:38.106Z,91.80
2018-06-16T22:46:06.682Z,92.00
2018-06-16T22:48:35.280Z,92.40
2018-06-16T22:51:03.860Z,92.10
2018-06-16T22:53:32.338Z,92.00
2018-06-16T22:56:00.887Z,92.30
2018-06-16T22:58:29.519Z,92.20
2018-06-16T23:00:57.954Z,92.40
2018-06-16T23:03:26.488Z,92.30
2018-06-16T23:05:55.084Z,92.00
2018-06-16T23:08:24.675Z,92.40
2018-06-16T23:10:53.336Z,92.30
2018-06-16T23:13:21.832Z,92.50
2018-06-16T23:15:50.479Z,92.30
2018-06-16T23:18:19.317Z,92.30
2018-06-16T23:20:47.796Z,92.30
2018-06-16T23:23:16.205Z,92.60
2018-06-16T23:25:44.724Z,92.50
2018-06-16T23:28:13.278Z,92.90
2018-06-16T23:30:41.680Z,92.70
2018-06-16T23:33:10.240Z,92.60
2018-06-16T23:35:39.041Z,92.70
2018-06-16T23:38:07.610Z,92.70
2018-06-16T23:40:36.392Z,92.90
2018-06-16T23:43:05.072Z,92.90
2018-06-16T23:45:33.500Z,92.70
2018-06-16T23:48:02.573Z,92.90
2018-06-16T23:50:31.088Z,93.00
2018-06-16T23:52:59.596Z,93.20
2018-06-16T23:55:28.107Z,93.20
2018-06-16T23:57:56.648Z,93.20
